Time;durP1;ratioP1;P1;durP2;ratioP2;P2;SDS_P1;SDS_P2;PMS_P1;PMS_P2;Temp;Humidity;BMP_temperature;BMP_pressure;BME280_temperature;BME280_humidity;BME280_pressure;Samples;Min_cycle;Max_cycle;Signal;HPM_P1;HPM_P2
2023/07/11 03:03:06;;;;;;;1.50;1.40;;;30.20;41.50;;;;;;4825290;29;46259;-60
2023/07/11 03:05:32;;;;;;;2.10;1.50;;;30.20;41.40;;;;;;4821760;29;45160;-61
2023/07/11 03:07:57;;;;;;;1.60;1.50;;;30.20;42.10;;;;;;4851880;29;45569;-60
2023/07/11 03:10:23;;;;;;;2.13;1.27;;;30.20;41.40;;;;;;4842141;29;45660;-61
2023/07/11 03:12:49;;;;;;;1.88;1.52;;;30.20;41.40;;;;;;4812689;29;45468;-62
2023/07/11 03:15:14;;;;;;;1.70;1.60;;;30.20;41.50;;;;;;4843852;29;45836;-60
2023/07/11 03:17:40;;;;;;;2.08;1.73;;;30.20;41.50;;;;;;4824355;29;45258;-61
2023/07/11 03:20:06;;;;;;;1.98;1.48;;;30.20;41.50;;;;;;4844628;29;46096;-63
2023/07/11 03:22:31;;;;;;;1.95;1.83;;;30.20;41.50;;;;;;4828944;29;45660;-63
2023/07/11 03:24:57;;;;;;;1.55;1.45;;;30.20;41.50;;;;;;4818084;29;46982;-62
2023/07/11 03:27:22;;;;;;;1.38;1.27;;;30.20;42.10;;;;;;4843846;29;45697;-63
2023/07/11 03:29:48;;;;;;;1.50;1.40;;;30.20;41.50;;;;;;4834592;29;45536;-63
2023/07/11 03:32:13;;;;;;;2.33;1.38;;;30.20;41.50;;;;;;4838443;29;45391;-59
2023/07/11 03:34:39;;;;;;;2.42;1.40;;;30.20;41.50;;;;;;4850305;29;45309;-60
2023/07/11 03:37:05;;;;;;;1.58;1.40;;;30.20;41.50;;;;;;4826891;29;45738;-62
2023/07/11 03:39:30;;;;;;;1.70;1.58;;;30.20;41.50;;;;;;4817853;29;45198;-62
2023/07/11 03:41:56;;;;;;;1.45;1.35;;;30.20;41.50;;;;;;4840203;29;45513;-62
2023/07/11 03:44:22;;;;;;;1.75;1.60;;;30.20;41.50;;;;;;4819188;29;45307;-61
2023/07/11 03:46:47;;;;;;;2.22;1.70;;;30.20;41.60;;;;;;4840216;29;45198;-62
2023/07/11 03:49:13;;;;;;;1.95;1.70;;;30.20;41.60;;;;;;4846992;29;45235;-61
2023/07/11 03:51:38;;;;;;;1.75;1.65;;;30.20;41.60;;;;;;4803853;29;45882;-61
2023/07/11 03:54:04;;;;;;;2.05;1.90;;;30.20;41.60;;;;;;4843321;29;45574;-61
2023/07/11 03:56:29;;;;;;;1.83;1.48;;;30.20;41.60;;;;;;4811620;29;45042;-61
2023/07/11 03:58:55;;;;;;;1.45;1.35;;;30.20;41.60;;;;;;4829432;29;45698;-59
2023/07/11 04:01:20;;;;;;;1.60;1.50;;;30.20;41.70;;;;;;4817026;29;45788;-61
2023/07/11 04:03:46;;;;;;;1.58;1.48;;;30.20;41.60;;;;;;4831830;29;45475;-61
2023/07/11 04:06:12;;;;;;;1.63;1.52;;;30.20;41.60;;;;;;4846541;29;44829;-62
2023/07/11 04:08:37;;;;;;;1.50;1.40;;;30.20;41.70;;;;;;4835062;29;45580;-61
2023/07/11 04:11:03;;;;;;;1.52;1.40;;;30.20;41.60;;;;;;4842452;29;45499;-61
2023/07/11 04:13:29;;;;;;;1.70;1.60;;;30.20;41.70;;;;;;4854471;29;45692;-61
2023/07/11 04:15:54;;;;;;;2.00;1.40;;;30.20;41.70;;;;;;4825641;29;45211;-63
2023/07/11 04:18:20;;;;;;;1.40;1.30;;;30.20;41.70;;;;;;4842398;29;45195;-60
2023/07/11 04:20:45;;;;;;;1.73;1.63;;;30.10;41.60;;;;;;4840955;29;45111;-62
2023/07/11 04:23:13;;;;;;;1.52;1.40;;;30.10;41.60;;;;;;4835343;29;45257;-61
2023/07/11 04:25:38;;;;;;;2.05;1.33;;;30.20;41.80;;;;;;4840038;29;45176;-61
2023/07/11 04:28:04;;;;;;;1.40;1.30;;;30.20;41.80;;;;;;4851766;29;45688;-61
2023/07/11 04:30:30;;;;;;;2.20;1.77;;;30.20;41.70;;;;;;4844307;29;45488;-62
2023/07/11 04:32:55;;;;;;;1.73;1.58;;;30.20;41.70;;;;;;4835480;29;46190;-62
2023/07/11 04:35:21;;;;;;;1.70;1.60;;;30.20;41.70;;;;;;4830216;29;45196;-62
2023/07/11 04:37:46;;;;;;;2.58;1.60;;;30.20;41.70;;;;;;4836057;29;45336;-61
2023/07/11 04:40:12;;;;;;;1.52;1.42;;;30.20;41.70;;;;;;4839482;29;44878;-62
2023/07/11 04:42:38;;;;;;;1.33;1.23;;;30.20;41.70;;;;;;4848004;29;45799;-62
2023/07/11 04:45:05;;;;;;;1.67;1.45;;;30.20;41.70;;;;;;4851492;29;44792;-63
2023/07/11 04:47:30;;;;;;;1.58;1.48;;;30.20;41.70;;;;;;4823718;29;45682;-61
2023/07/11 04:49:56;;;;;;;1.48;1.33;;;30.20;41.70;;;;;;4851083;29;45452;-62
2023/07/11 04:52:22;;;;;;;1.55;1.40;;;30.20;41.70;;;;;;4845678;29;45447;-63
2023/07/11 04:54:47;;;;;;;1.50;1.27;;;30.20;41.70;;;;;;4849959;29;45031;-62
2023/07/11 04:57:13;;;;;;;1.60;1.50;;;30.20;41.70;;;;;;4829648;29;45451;-61
2023/07/11 04:59:38;;;;;;;1.50;1.40;;;30.20;41.80;;;;;;4845069;29;45304;-62
2023/07/11 05:02:04;;;;;;;1.63;1.52;;;30.20;41.70;;;;;;4825454;29;45697;-63
2023/07/11 05:04:29;;;;;;;1.77;1.67;;;30.20;41.70;;;;;;4833854;29;45277;-61
2023/07/11 05:06:55;;;;;;;1.67;1.58;;;30.20;41.70;;;;;;4840399;29;45391;-61
2023/07/11 05:09:20;;;;;;;1.55;1.45;;;30.20;41.70;;;;;;4849282;29;45783;-62
2023/07/11 05:11:46;;;;;;;2.13;1.60;;;30.20;41.70;;;;;;4822345;29;46367;-59
2023/07/11 05:14:11;;;;;;;1.33;1.23;;;30.20;41.70;;;;;;4854347;29;45059;-60
2023/07/11 05:16:37;;;;;;;1.50;1.40;;;30.30;41.70;;;;;;4842154;29;45057;-62
2023/07/11 05:19:03;;;;;;;1.52;1.40;;;30.20;41.90;;;;;;4756170;29;45445;-60
2023/07/11 05:21:28;;;;;;;1.70;1.60;;;30.30;41.70;;;;;;4822368;29;47287;-61
2023/07/11 05:23:56;;;;;;;1.95;1.70;;;30.30;41.70;;;;;;4832542;29;46012;-61
2023/07/11 05:26:22;;;;;;;1.65;1.55;;;30.30;41.60;;;;;;4827281;29;45573;-61
2023/07/11 05:28:48;;;;;;;1.80;1.65;;;30.20;41.40;;;;;;4829711;29;45408;-61
2023/07/11 05:31:14;;;;;;;1.90;1.70;;;30.00;41.30;;;;;;4784040;29;46604;-60
2023/07/11 05:33:40;;;;;;;2.08;1.88;;;29.70;41.30;;;;;;4862715;29;45638;-61
2023/07/11 05:38:51;;;;;;;1.98;1.88;;;29.30;41.10;;;;;;4848745;29;45467;-61
2023/07/11 05:41:17;;;;;;;2.03;1.92;;;29.10;41.30;;;;;;4828770;29;45381;-61
2023/07/11 05:43:43;;;;;;;2.15;1.92;;;29.40;40.70;;;;;;4864972;29;45920;-62
2023/07/11 05:46:08;;;;;;;1.70;1.60;;;29.80;39.90;;;;;;4843770;29;45021;-60
2023/07/11 05:48:34;;;;;;;1.70;1.60;;;29.50;39.70;;;;;;4831857;29;45212;-61
2023/07/11 05:51:06;;;;;;;1.60;1.50;;;29.30;39.90;;;;;;4840511;29;45616;-61
2023/07/11 05:53:31;;;;;;;1.98;1.88;;;29.10;39.80;;;;;;4850581;29;45645;-66
2023/07/11 05:55:57;;;;;;;;;;;28.90;40.10;;;;;;4847032;29;45388;-68
2023/07/11 05:58:23;;;;;;;1.85;1.75;;;28.80;39.50;;;;;;4853269;29;45328;-65
2023/07/11 06:00:51;;;;;;;2.10;1.83;;;28.80;40.10;;;;;;4844799;29;45332;-63
2023/07/11 06:03:17;;;;;;;1.70;1.60;;;28.80;39.90;;;;;;4849252;29;45182;-65
2023/07/11 06:05:42;;;;;;;2.10;1.90;;;28.70;39.90;;;;;;4828999;29;45815;-67
2023/07/11 06:08:08;;;;;;;2.70;2.22;;;28.70;39.80;;;;;;4851321;29;45526;-63
2023/07/11 06:10:33;;;;;;;1.83;1.73;;;28.60;39.70;;;;;;4847902;29;46371;-64
2023/07/11 06:12:59;;;;;;;1.83;1.73;;;28.60;39.70;;;;;;4853769;29;45562;-64
2023/07/11 06:15:25;;;;;;;1.90;1.73;;;28.50;39.60;;;;;;4842944;29;45804;-64
2023/07/11 06:17:50;;;;;;;1.67;1.52;;;28.50;39.60;;;;;;4845518;29;45573;-64
2023/07/11 06:20:16;;;;;;;1.60;1.50;;;28.40;39.50;;;;;;4846946;29;45759;-65
2023/07/11 06:22:41;;;;;;;1.92;1.75;;;28.40;39.50;;;;;;4849287;29;45508;-64
2023/07/11 06:25:07;;;;;;;1.70;1.60;;;28.40;39.60;;;;;;4846846;29;45320;-65
2023/07/11 06:27:33;;;;;;;1.98;1.80;;;28.30;39.40;;;;;;4856029;29;45475;-63
2023/07/11 06:29:58;;;;;;;2.13;1.70;;;28.30;39.40;;;;;;4855448;29;45543;-67
2023/07/11 06:32:24;;;;;;;1.52;1.42;;;28.30;39.30;;;;;;4845282;29;45473;-66
2023/07/11 06:34:49;;;;;;;2.28;2.08;;;28.30;39.40;;;;;;4856171;29;45510;-64
2023/07/11 06:37:15;;;;;;;2.05;1.83;;;28.20;39.30;;;;;;4847843;29;45148;-64
2023/07/11 06:39:40;;;;;;;2.38;1.75;;;28.20;39.30;;;;;;4847184;29;45483;-66
2023/07/11 06:42:06;;;;;;;2.63;1.80;;;28.20;39.30;;;;;;4846559;29;45224;-62
2023/07/11 06:44:32;;;;;;;2.00;1.85;;;28.10;39.20;;;;;;4853370;29;45208;-66
2023/07/11 06:46:57;;;;;;;2.30;2.10;;;28.10;39.10;;;;;;4834806;29;45496;-62
2023/07/11 06:49:23;;;;;;;1.90;1.70;;;28.10;39.10;;;;;;4853219;29;45423;-63
2023/07/11 06:51:49;;;;;;;1.90;1.80;;;28.10;39.10;;;;;;4846510;29;46081;-64
2023/07/11 06:54:16;;;;;;;1.98;1.75;;;28.00;39.00;;;;;;4850069;29;45526;-65
2023/07/11 06:56:41;;;;;;;2.08;1.88;;;28.00;39.10;;;;;;4846477;29;45371;-64
2023/07/11 06:59:08;;;;;;;1.92;1.67;;;28.00;39.10;;;;;;4851038;29;45172;-65
2023/07/11 07:01:33;;;;;;;3.50;1.88;;;28.00;39.00;;;;;;4839803;29;45600;-66
2023/07/11 07:04:00;;;;;;;2.60;1.63;;;27.90;39.00;;;;;;4832535;29;45004;-65
2023/07/11 07:06:25;;;;;;;2.28;1.75;;;27.90;39.10;;;;;;4812833;29;44948;-62
2023/07/11 07:08:51;;;;;;;1.77;1.67;;;27.90;39.30;;;;;;4843359;29;46365;-65
2023/07/11 07:11:16;;;;;;;2.17;1.70;;;27.90;39.40;;;;;;4845396;29;45704;-71
2023/07/11 07:13:42;;;;;;;1.80;1.67;;;27.90;39.60;;;;;;4856419;29;45451;-64
2023/07/11 07:16:08;;;;;;;1.80;1.70;;;28.00;39.80;;;;;;4839667;29;45247;-67
2023/07/11 07:18:34;;;;;;;1.88;1.50;;;27.90;39.90;;;;;;4834601;29;47189;-66
2023/07/11 07:21:00;;;;;;;3.55;1.58;;;28.00;40.00;;;;;;4832237;29;45552;-64
2023/07/11 07:23:26;;;;;;;2.20;1.90;;;28.00;40.20;;;;;;4849161;29;45304;-63
2023/07/11 07:25:57;;;;;;;1.60;1.50;;;28.00;40.30;;;;;;4847976;29;45197;-64
2023/07/11 07:28:22;;;;;;;3.10;1.40;;;28.00;40.50;;;;;;4854473;29;45318;-64
2023/07/11 07:30:49;;;;;;;1.85;1.75;;;28.00;40.50;;;;;;4821597;29;45310;-63
2023/07/11 07:33:15;;;;;;;1.70;1.60;;;28.00;40.70;;;;;;4850256;29;45563;-64
2023/07/11 07:35:41;;;;;;;1.67;1.58;;;28.00;40.70;;;;;;4848433;29;45109;-66
2023/07/11 07:38:07;;;;;;;2.05;1.90;;;28.00;40.90;;;;;;4828177;29;46291;-69
2023/07/11 07:40:32;;;;;;;2.38;1.60;;;28.00;41.00;;;;;;4847956;29;45414;-65
2023/07/11 07:42:58;;;;;;;1.50;1.40;;;28.00;41.20;;;;;;4836885;29;45634;-66
2023/07/11 07:45:23;;;;;;;2.40;1.70;;;28.00;41.20;;;;;;4842604;29;45811;-65
2023/07/11 07:47:49;;;;;;;1.80;1.40;;;28.00;41.30;;;;;;4847062;29;47881;-67
2023/07/11 07:50:15;;;;;;;1.77;1.65;;;28.00;41.40;;;;;;4830958;29;45392;-64
2023/07/11 07:52:40;;;;;;;1.95;1.67;;;28.00;41.40;;;;;;4832941;29;45416;-65
2023/07/11 07:55:06;;;;;;;1.73;1.63;;;28.00;42.20;;;;;;4850093;29;45413;-67
2023/07/11 07:57:32;;;;;;;2.15;1.55;;;28.00;41.60;;;;;;4851442;29;47032;-66
2023/07/11 07:59:58;;;;;;;1.48;1.38;;;28.00;41.70;;;;;;4818244;29;44809;-65
2023/07/11 08:02:23;;;;;;;2.92;1.27;;;28.00;41.80;;;;;;4843390;29;45817;-65
2023/07/11 08:04:49;;;;;;;3.60;1.70;;;28.10;41.90;;;;;;4852772;29;45412;-66
2023/07/11 08:07:15;;;;;;;1.63;1.52;;;28.10;42.00;;;;;;4835838;29;46326;-65
2023/07/11 08:09:41;;;;;;;1.55;1.33;;;28.10;42.10;;;;;;4850843;29;44945;-63
2023/07/11 08:12:07;;;;;;;1.45;1.35;;;28.10;42.20;;;;;;4828082;29;44786;-68
2023/07/11 08:14:37;;;;;;;1.73;1.63;;;28.00;42.20;;;;;;4851952;29;45547;-64
2023/07/11 08:17:03;;;;;;;1.60;1.50;;;28.10;42.30;;;;;;4841955;29;45210;-63
2023/07/11 08:19:28;;;;;;;2.13;1.48;;;28.10;42.10;;;;;;4852704;29;45606;-64
2023/07/11 08:21:54;;;;;;;2.58;1.30;;;28.10;42.00;;;;;;4846341;29;45359;-64
2023/07/11 08:24:19;;;;;;;1.15;1.05;;;28.00;42.20;;;;;;4836258;29;45047;-64
2023/07/11 08:26:45;;;;;;;1.60;1.50;;;28.00;42.20;;;;;;4848224;29;45219;-63
2023/07/11 08:29:12;;;;;;;2.03;1.90;;;28.00;42.20;;;;;;4852242;29;45235;-64
2023/07/11 08:31:38;;;;;;;1.48;1.27;;;28.10;42.40;;;;;;4824836;29;45264;-64
2023/07/11 08:34:04;;;;;;;1.42;1.33;;;28.10;42.50;;;;;;4847940;29;44975;-65
2023/07/11 08:36:29;;;;;;;1.50;1.40;;;28.10;42.50;;;;;;4829885;29;46102;-64
2023/07/11 08:38:55;;;;;;;3.47;1.20;;;28.10;42.60;;;;;;4851083;29;45217;-62
2023/07/11 08:41:31;;;;;;;1.65;1.55;;;28.10;42.60;;;;;;4848073;29;45205;-65
2023/07/11 08:44:06;;;;;;;1.60;1.50;;;28.20;42.70;;;;;;4837916;29;45708;-65
2023/07/11 08:46:39;;;;;;;1.38;1.27;;;28.20;42.90;;;;;;4841058;29;45662;-66
2023/07/11 08:49:04;;;;;;;1.80;1.42;;;28.20;42.90;;;;;;4816876;29;45393;-63
2023/07/11 08:51:38;;;;;;;1.65;1.35;;;28.20;42.70;;;;;;4830679;29;45044;-65
2023/07/11 08:54:15;;;;;;;1.65;1.52;;;28.20;42.90;;;;;;4820541;29;45366;-67
2023/07/11 08:56:43;;;;;;;1.38;1.27;;;28.20;42.90;;;;;;4833874;29;46633;-64
2023/07/11 08:59:19;;;;;;;2.10;1.70;;;28.20;42.90;;;;;;4840158;29;45498;-65
2023/07/11 09:02:00;;;;;;;1.40;1.30;;;28.20;43.00;;;;;;4829375;29;45883;-61
2023/07/11 09:04:27;;;;;;;1.58;1.23;;;28.20;42.90;;;;;;4840493;29;44991;-65
2023/07/11 09:07:09;;;;;;;1.60;1.50;;;28.20;42.90;;;;;;4849712;29;46401;-63
2023/07/11 09:09:35;;;;;;;2.40;1.40;;;28.20;43.10;;;;;;4824962;29;44707;-67
2023/07/11 09:12:16;;;;;;;1.88;1.70;;;28.20;42.90;;;;;;4845501;29;45460;-65
2023/07/11 09:14:58;;;;;;;1.50;1.40;;;28.20;43.20;;;;;;4838490;29;45439;-65
2023/07/11 09:17:39;;;;;;;1.30;1.20;;;28.20;43.30;;;;;;4813304;29;47413;-66
2023/07/11 09:20:22;;;;;;;1.40;1.30;;;28.20;43.30;;;;;;4845923;29;45077;-67
2023/07/11 09:23:23;;;;;;;1.88;1.20;;;28.20;43.30;;;;;;4841893;29;45085;-68
2023/07/11 09:25:48;;;;;;;1.27;1.17;;;28.30;43.30;;;;;;4811044;29;45422;-66
2023/07/11 09:28:24;;;;;;;1.35;1.25;;;28.30;43.20;;;;;;4835552;29;46333;-64
2023/07/11 09:31:01;;;;;;;1.42;1.33;;;28.30;43.40;;;;;;4813017;29;45513;-65
2023/07/11 09:33:37;;;;;;;1.90;1.33;;;28.30;43.30;;;;;;4851078;29;45309;-67
2023/07/11 09:36:05;;;;;;;2.13;1.38;;;28.30;43.10;;;;;;4809346;29;46975;-66
2023/07/11 09:38:33;;;;;;;1.60;1.42;;;28.20;42.80;;;;;;4836899;29;46435;-66
2023/07/11 09:41:15;;;;;;;2.03;1.50;;;28.20;43.10;;;;;;4832983;29;44817;-65
2023/07/11 09:43:41;;;;;;;1.55;1.35;;;28.30;43.30;;;;;;4842176;29;46358;-68
2023/07/11 09:46:23;;;;;;;2.97;1.30;;;28.20;43.30;;;;;;4845286;29;45305;-66
2023/07/11 09:48:53;;;;;;;2.45;1.52;;;28.20;43.50;;;;;;4851128;29;46078;-62
2023/07/11 09:51:30;;;;;;;1.50;1.40;;;28.20;43.50;;;;;;4827786;29;45315;-64
2023/07/11 09:53:55;;;;;;;1.58;1.45;;;28.20;43.40;;;;;;4852431;29;45781;-67
2023/07/11 09:56:22;;;;;;;1.38;1.27;;;28.30;43.50;;;;;;4819652;29;44932;-69
2023/07/11 09:58:52;;;;;;;1.20;1.10;;;28.30;43.50;;;;;;4834866;29;45948;-66
2023/07/11 10:01:32;;;;;;;1.40;1.30;;;28.30;43.40;;;;;;4801542;29;45858;-64
2023/07/11 10:03:58;;;;;;;1.35;1.25;;;28.30;43.40;;;;;;4852054;29;45821;-65
2023/07/11 10:06:31;;;;;;;1.40;1.30;;;28.20;43.20;;;;;;4827081;29;45322;-71
2023/07/11 10:08:57;;;;;;;2.53;1.35;;;28.20;43.20;;;;;;4837930;29;45265;-66
2023/07/11 10:11:22;;;;;;;1.60;1.50;;;28.20;43.10;;;;;;4808513;29;46480;-63
2023/07/11 10:13:55;;;;;;;1.40;1.30;;;28.20;43.00;;;;;;4843471;29;45602;-66
2023/07/11 10:16:20;;;;;;;1.90;1.38;;;28.10;42.80;;;;;;4823496;29;45555;-69
2023/07/11 10:18:46;;;;;;;1.65;1.42;;;28.10;42.80;;;;;;4834662;29;46376;-63
2023/07/11 10:21:14;;;;;;;1.30;1.20;;;28.10;42.80;;;;;;4829869;29;45499;-63
2023/07/11 10:23:42;;;;;;;3.22;1.42;;;28.10;42.60;;;;;;4855174;29;45307;-70
2023/07/11 10:26:11;;;;;;;1.75;1.30;;;28.00;42.60;;;;;;4823512;29;45236;-65
2023/07/11 10:28:42;;;;;;;1.65;1.50;;;28.00;42.50;;;;;;4857056;29;46068;-62
2023/07/11 10:31:20;;;;;;;1.60;1.50;;;27.90;42.40;;;;;;4842226;29;45300;-64
2023/07/11 10:33:52;;;;;;;1.45;1.35;;;28.00;42.30;;;;;;4834349;29;45433;-64
2023/07/11 10:36:39;;;;;;;1.20;1.10;;;27.90;42.20;;;;;;4814459;29;45518;-65
2023/07/11 10:39:09;;;;;;;1.63;1.40;;;27.90;42.30;;;;;;4828865;29;46503;-66
2023/07/11 10:41:46;;;;;;;1.48;1.35;;;27.90;42.30;;;;;;4811207;29;45188;-61
2023/07/11 10:44:19;;;;;;;2.72;1.30;;;27.80;42.10;;;;;;4827643;29;45199;-63
2023/07/11 10:46:47;;;;;;;1.40;1.30;;;27.80;42.10;;;;;;4834982;29;45252;-62
2023/07/11 10:49:20;;;;;;;2.03;1.30;;;27.80;42.10;;;;;;4818765;29;46280;-61
2023/07/11 10:51:56;;;;;;;1.60;1.40;;;27.80;42.00;;;;;;4830913;29;45420;-62
2023/07/11 10:54:26;;;;;;;2.40;1.33;;;27.80;42.00;;;;;;4830399;29;45605;-59
2023/07/11 10:56:59;;;;;;;1.45;1.35;;;27.80;42.00;;;;;;4832200;29;45053;-59
2023/07/11 10:59:24;;;;;;;;;;;27.80;41.80;;;;;;4835720;29;45530;-60
2023/07/11 11:02:14;;;;;;;1.30;1.20;;;27.80;41.50;;;;;;4826688;29;44730;-60
2023/07/11 11:04:52;;;;;;;1.60;1.20;;;27.90;41.60;;;;;;4841094;29;45266;-58
2023/07/11 11:07:29;;;;;;;1.60;1.20;;;27.90;41.50;;;;;;4830331;29;45049;-60
2023/07/11 11:10:24;;;;;;;1.33;1.23;;;27.90;41.40;;;;;;4799602;29;47144;-60
2023/07/11 11:13:05;;;;;;;1.40;1.30;;;27.90;41.40;;;;;;4843582;29;45223;-60
2023/07/11 11:15:33;;;;;;;1.75;1.55;;;27.90;41.40;;;;;;4813366;29;45260;-59
2023/07/11 11:18:31;;;;;;;1.20;1.10;;;27.90;42.10;;;;;;4834987;29;45487;-61
2023/07/11 11:21:25;;;;;;;1.05;0.95;;;27.90;41.40;;;;;;4848469;29;45996;-56
2023/07/11 11:24:10;;;;;;;1.63;1.40;;;27.90;41.50;;;;;;4834259;29;45229;-61
2023/07/11 11:26:56;;;;;;;1.50;1.40;;;27.90;41.50;;;;;;4833131;29;44672;-60
2023/07/11 11:29:48;;;;;;;3.25;1.20;;;27.90;41.50;;;;;;4836974;29;45452;-58
2023/07/11 11:32:32;;;;;;;1.67;1.55;;;27.90;41.50;;;;;;4840064;29;45745;-62
2023/07/11 11:35:20;;;;;;;1.50;1.40;;;27.90;41.50;;;;;;4853385;29;45265;-61
2023/07/11 11:38:09;;;;;;;1.42;1.33;;;27.90;41.40;;;;;;4841862;29;45269;-60
2023/07/11 11:40:37;;;;;;;1.17;1.08;;;27.90;41.50;;;;;;4796901;29;45491;-60
2023/07/11 11:43:05;;;;;;;1.42;1.33;;;27.90;41.50;;;;;;4831532;29;45430;-60
2023/07/11 11:45:30;;;;;;;1.70;1.42;;;27.90;41.60;;;;;;4824551;29;45582;-60
2023/07/11 11:47:56;;;;;;;;;;;27.90;41.50;;;;;;4819293;29;45742;-62
2023/07/11 11:50:22;;;;;;;;;;;27.90;41.70;;;;;;4834754;29;44817;-69
2023/07/11 11:53:15;;;;;;;1.20;1.10;;;27.80;41.80;;;;;;4831559;29;45256;-66
2023/07/11 11:55:46;;;;;;;1.48;1.38;;;27.80;41.60;;;;;;4842610;29;45206;-66
2023/07/11 11:58:15;;;;;;;1.30;1.20;;;27.80;41.70;;;;;;4826611;29;46726;-69
2023/07/11 12:00:50;;;;;;;1.23;1.13;;;27.80;41.70;;;;;;4815183;29;44856;-67
2023/07/11 12:03:33;;;;;;;;;;;27.80;41.80;;;;;;4810805;29;45648;-66
2023/07/11 12:06:01;;;;;;;1.35;1.15;;;27.70;41.80;;;;;;4846796;29;45834;-65
2023/07/11 12:08:27;;;;;;;1.50;1.40;;;27.70;41.80;;;;;;4834605;29;45217;-64
2023/07/11 12:11:08;;;;;;;1.50;1.40;;;27.80;41.80;;;;;;4832480;29;46374;-64
2023/07/11 12:13:42;;;;;;;1.38;1.27;;;27.80;41.90;;;;;;4853551;29;45553;-65
2023/07/11 12:16:28;;;;;;;1.35;1.25;;;27.70;41.90;;;;;;4828051;29;45259;-67
2023/07/11 12:18:58;;;;;;;1.10;1.00;;;27.80;41.90;;;;;;4829057;29;45719;-64
2023/07/11 12:21:31;;;;;;;1.20;1.10;;;27.70;41.90;;;;;;4805251;29;45135;-65
2023/07/11 12:24:16;;;;;;;;;;;27.70;41.90;;;;;;4825640;29;45458;-64
2023/07/11 12:26:42;;;;;;;1.20;1.10;;;27.70;42.10;;;;;;4852163;29;45774;-62
2023/07/11 12:29:30;;;;;;;1.33;1.20;;;27.70;42.10;;;;;;4853196;29;45527;-63
2023/07/11 12:32:32;;;;;;;1.30;1.20;;;27.70;42.10;;;;;;4847229;29;44747;-66
2023/07/11 12:35:04;;;;;;;2.10;1.20;;;27.70;42.20;;;;;;4855816;29;45488;-68
2023/07/11 12:37:48;;;;;;;3.13;1.27;;;27.70;42.20;;;;;;4838923;29;45636;-66
2023/07/11 12:40:21;;;;;;;1.38;1.20;;;27.70;42.30;;;;;;4845763;29;45461;-69
2023/07/11 12:42:53;;;;;;;1.17;1.08;;;27.70;42.30;;;;;;4850753;29;45443;-64
2023/07/11 12:45:24;;;;;;;1.47;1.30;;;27.70;42.20;;;;;;4816544;29;46825;-72
2023/07/11 12:48:00;;;;;;;1.73;1.30;;;27.70;42.40;;;;;;4822724;29;45322;-65
2023/07/11 12:50:28;;;;;;;1.23;1.13;;;27.70;42.40;;;;;;4833828;29;46036;-67
2023/07/11 12:53:02;;;;;;;1.42;1.23;;;27.70;42.40;;;;;;4807707;29;45379;-66
2023/07/11 12:55:28;;;;;;;1.17;1.02;;;27.70;42.40;;;;;;4834546;29;45447;-66
2023/07/11 12:57:54;;;;;;;1.30;1.20;;;27.70;42.40;;;;;;4824102;29;45537;-66
2023/07/11 13:00:20;;;;;;;1.08;0.98;;;27.70;42.40;;;;;;4844752;29;45321;-66
2023/07/11 13:02:46;;;;;;;1.33;1.23;;;27.70;42.40;;;;;;4833720;29;45528;-66
2023/07/11 13:05:15;;;;;;;1.25;1.10;;;27.70;42.40;;;;;;4835825;29;46248;-67
2023/07/11 13:07:40;;;;;;;1.55;1.20;;;27.70;42.40;;;;;;4823099;29;45370;-65
2023/07/11 13:10:26;;;;;;;1.50;1.10;;;27.70;42.40;;;;;;4819351;29;45282;-71
2023/07/11 13:12:52;;;;;;;1.50;1.27;;;27.70;42.40;;;;;;4852620;29;44906;-65
2023/07/11 13:15:19;;;;;;;2.47;1.38;;;27.70;42.40;;;;;;4847994;29;45353;-66
2023/07/11 13:17:50;;;;;;;1.30;1.15;;;27.70;42.40;;;;;;4833441;29;45383;-68
2023/07/11 13:20:24;;;;;;;1.38;1.27;;;27.70;42.50;;;;;;4830745;29;45075;-67
2023/07/11 13:22:49;;;;;;;1.42;1.33;;;27.70;42.60;;;;;;4851596;29;45334;-65
2023/07/11 13:25:17;;;;;;;1.20;1.10;;;27.60;42.50;;;;;;4834821;29;47009;-66
2023/07/11 13:27:44;;;;;;;;;;;27.60;42.50;;;;;;4809511;29;45662;-66
2023/07/11 13:30:19;;;;;;;;;;;27.50;42.70;;;;;;4836773;29;45240;-66
2023/07/11 13:32:45;;;;;;;;;;;27.50;42.70;;;;;;4856253;29;44911;-67
2023/07/11 13:35:14;;;;;;;;;;;27.50;42.80;;;;;;4835531;29;47906;-68
2023/07/11 13:37:44;;;;;;;;;;;27.50;42.30;;;;;;4853119;29;45311;-66
2023/07/11 13:40:29;;;;;;;;;;;27.40;42.40;;;;;;4841584;29;44681;-66
2023/07/11 13:42:55;;;;;;;;;;;27.40;42.50;;;;;;4861435;29;44698;-67
2023/07/11 13:45:20;;;;;;;;;;;27.40;42.60;;;;;;4835681;29;46204;-67
2023/07/11 13:47:47;;;;;;;;;;;27.40;42.60;;;;;;4850653;29;45576;-68
2023/07/11 13:50:31;;;;;;;;;;;27.40;42.70;;;;;;4832916;29;45191;-69
2023/07/11 13:53:01;;;;;;;;;;;27.40;42.70;;;;;;4844821;29;45567;-66
2023/07/11 13:55:27;;;;;;;;;;;27.40;42.70;;;;;;4836221;29;45042;-68
2023/07/11 13:57:53;;;;;;;;;;;27.40;42.70;;;;;;4840913;29;44737;-66
2023/07/11 14:00:19;;;;;;;;;;;27.40;42.70;;;;;;4832727;29;45710;-69
2023/07/11 14:02:45;;;;;;;;;;;27.30;42.70;;;;;;4825700;29;45253;-68
2023/07/11 14:05:20;;;;;;;;;;;27.30;42.80;;;;;;4823256;29;45523;-67
2023/07/11 14:07:46;;;;;;;;;;;27.30;42.80;;;;;;4822776;29;45609;-66
2023/07/11 14:10:12;;;;;;;;;;;27.30;42.80;;;;;;4817249;29;45367;-66
2023/07/11 14:12:37;;;;;;;;;;;27.30;42.80;;;;;;4850747;29;45404;-63
2023/07/11 14:15:09;;;;;;;;;;;27.30;42.90;;;;;;4842058;29;45344;-73
2023/07/11 14:17:35;;;;;;;;;;;27.30;42.80;;;;;;4831393;29;45082;-65
2023/07/11 14:20:00;;;;;;;;;;;27.30;42.90;;;;;;4842512;29;45183;-65
2023/07/11 14:22:26;;;;;;;;;;;27.30;42.90;;;;;;4851511;29;45756;-63
2023/07/11 14:24:51;;;;;;;;;;;27.30;42.80;;;;;;4841839;29;45344;-67
2023/07/11 14:27:17;;;;;;;;;;;27.30;42.90;;;;;;4833288;29;45506;-63
2023/07/11 14:29:42;;;;;;;;;;;27.30;42.80;;;;;;4843254;29;45585;-64
2023/07/11 14:32:12;;;;;;;;;;;27.30;42.70;;;;;;4834607;29;44760;-65
2023/07/11 14:34:38;;;;;;;;;;;27.30;42.80;;;;;;4836464;29;46516;-64
2023/07/11 14:37:03;;;;;;;;;;;27.30;42.70;;;;;;4849608;29;44761;-64
2023/07/11 14:39:29;;;;;;;;;;;27.30;42.10;;;;;;4856121;29;45290;-67
2023/07/11 14:41:54;;;;;;;;;;;27.20;41.90;;;;;;4850566;29;45212;-67
2023/07/11 14:44:23;;;;;;;;;;;27.20;41.60;;;;;;4838049;29;45309;-65
2023/07/11 14:46:49;;;;;;;;;;;27.20;41.40;;;;;;4844187;29;45342;-66
2023/07/11 14:49:15;;;;;;;;;;;27.10;41.00;;;;;;4853525;29;46108;-66
2023/07/11 14:51:40;;;;;;;;;;;27.10;40.90;;;;;;4841982;29;45547;-66
2023/07/11 14:54:26;;;;;;;;;;;27.10;42.00;;;;;;4856642;29;47335;-67
2023/07/11 14:56:52;;;;;;;;;;;27.20;42.70;;;;;;4848881;29;45077;-66
2023/07/11 14:59:25;;;;;;;;;;;27.30;43.00;;;;;;4857355;29;45762;-70
2023/07/11 15:01:51;;;;;;;;;;;27.30;43.30;;;;;;4822339;29;45260;-65
2023/07/11 15:04:17;;;;;;;;;;;27.40;43.00;;;;;;4831690;29;45776;-66
2023/07/11 15:06:42;;;;;;;;;;;27.50;42.90;;;;;;4850068;29;45229;-65
2023/07/11 15:09:08;;;;;;;;;;;27.60;42.70;;;;;;4855733;29;46105;-66
2023/07/11 15:11:36;;;;;;;;;;;27.70;42.40;;;;;;4831339;29;45301;-65
2023/07/11 15:14:08;;;;;;;;;;;27.80;42.40;;;;;;4854185;29;46898;-65
2023/07/11 15:16:35;;;;;;;;;;;27.90;42.40;;;;;;4841772;29;45425;-67
2023/07/11 15:19:01;;;;;;;;;;;27.90;42.20;;;;;;4858266;29;45937;-65
2023/07/11 15:21:26;;;;;;;;;;;28.00;42.10;;;;;;4844016;29;45282;-66
2023/07/11 15:23:52;;;;;;;;;;;28.00;42.00;;;;;;4843641;29;45297;-66
2023/07/11 15:26:23;;;;;;;;;;;28.10;42.00;;;;;;4851418;29;45402;-65
2023/07/11 15:28:49;;;;;;;;;;;28.20;41.90;;;;;;4870379;29;45904;-65
2023/07/11 15:31:15;;;;;;;;;;;28.20;41.90;;;;;;4838229;29;45548;-65
2023/07/11 15:33:44;;;;;;;;;;;28.30;41.80;;;;;;4831151;29;48022;-65
2023/07/11 15:36:09;;;;;;;;;;;28.30;41.80;;;;;;4854821;29;45132;-65
2023/07/11 15:38:35;;;;;;;;;;;28.40;41.80;;;;;;4845170;29;45262;-67
2023/07/11 15:41:01;;;;;;;;;;;28.40;41.70;;;;;;4860612;29;46334;-66
2023/07/11 15:43:30;;;;;;;;;;;28.40;41.60;;;;;;4844895;29;47162;-67
2023/07/11 15:45:57;;;;;;;;;;;28.50;41.70;;;;;;4837900;29;45768;-65
2023/07/11 15:48:22;;;;;;;;;;;28.50;41.60;;;;;;4847385;29;45331;-65
2023/07/11 15:50:48;;;;;;;;;;;28.60;41.50;;;;;;4842648;29;44949;-66
2023/07/11 15:53:14;;;;;;;;;;;28.60;41.40;;;;;;4832727;29;47610;-67
2023/07/11 15:55:39;;;;;;;;;;;28.70;41.40;;;;;;4844029;29;45751;-64
2023/07/11 15:58:05;;;;;;;;;;;28.70;41.50;;;;;;4818433;29;45476;-65
2023/07/11 16:00:31;;;;;;;;;;;28.70;41.50;;;;;;4831611;29;44904;-64
2023/07/11 16:02:56;;;;;;;;;;;28.80;41.50;;;;;;4856998;29;46015;-64
2023/07/11 16:05:24;;;;;;;;;;;28.90;41.50;;;;;;4820648;29;45170;-67
2023/07/11 16:07:49;;;;;;;;;;;28.90;41.60;;;;;;4853414;29;45494;-68
2023/07/11 16:10:19;;;;;;;;;;;29.00;41.50;;;;;;4849594;29;45546;-65
2023/07/11 16:12:45;;;;;;;;;;;29.00;41.40;;;;;;4826625;29;47210;-65
2023/07/11 16:15:11;;;;;;;;;;;29.10;41.60;;;;;;4852132;29;45231;-64
2023/07/11 16:17:36;;;;;;;;;;;29.10;41.40;;;;;;4833965;29;44741;-66
2023/07/11 16:20:05;;;;;;;;;;;29.20;41.50;;;;;;4859035;29;45354;-65
2023/07/11 16:22:30;;;;;;;;;;;29.20;41.50;;;;;;4836131;29;45652;-68